Time;durP1;ratioP1;P1;durP2;ratioP2;P2;SDS_P1;SDS_P2;PMS_P1;PMS_P2;Temp;Humidity;BMP_temperature;BMP_pressure;BME280_temperature;BME280_humidity;BME280_pressure;Samples;Min_cycle;Max_cycle;Signal;HPM_P1;HPM_P2
2024/01/02 00:00:38;;;;;;;;;;;;;;;18.54;63.23;98669.09;2082952;28;19960;-65
2024/01/02 00:01:39;;;;;;;;;;;;;;;18.55;63.16;98669.91;2080434;28;19925;-64
2024/01/02 00:02:40;;;;;;;;;;;;;;;18.57;63.18;98667.88;2083703;28;19978;-64
2024/01/02 00:03:41;;;;;;;;;;;;;;;18.58;63.13;98668.69;2084996;28;19933;-63
2024/01/02 00:04:42;;;;;;;;;;;;;;;18.60;62.94;98661.25;2082288;28;20495;-64
2024/01/02 00:05:44;;;;;;;;;;;;;;;18.60;63.18;98656.72;2084467;28;20015;-63
2024/01/02 00:06:46;;;;;;;;;;;;;;;18.62;63.13;98659.22;2083040;28;19936;-64
2024/01/02 00:07:48;;;;;;;;;;;;;;;18.62;63.14;98660.03;2080907;28;19932;-62
2024/01/02 00:08:48;;;;;;;;;;;;;;;18.64;63.07;98652.59;2080693;28;19936;-63
2024/01/02 00:09:51;;;;;;;;;;;;;;;18.64;62.87;98666.03;2081414;28;19966;-62
2024/01/02 00:10:52;;;;;;;;;;;;;;;18.64;63.12;98667.91;2081074;28;19928;-64
2024/01/02 00:11:54;;;;;;;;;;;;;;;18.63;63.08;98661.66;2082947;28;19968;-63
2024/01/02 00:12:58;;;;;;;;;;;;;;;18.63;63.13;98661.66;2082916;28;19951;-65
2024/01/02 00:13:59;;;;;;;;;;;;;;;18.64;63.06;98668.72;2082719;28;19925;-62
2024/01/02 00:15:00;;;;;;;;;;;;;;;18.64;62.98;98659.84;2081395;28;19936;-64
2024/01/02 00:16:02;;;;;;;;;;;;;;;18.64;63.16;98657.16;2083136;28;19969;-63
2024/01/02 00:17:02;;;;;;;;;;;;;;;18.67;63.12;98657.56;2082539;28;19933;-65
2024/01/02 00:18:04;;;;;;;;;;;;;;;18.65;63.18;98653.44;2082438;28;20427;-64
2024/01/02 00:19:05;;;;;;;;;;;;;;;18.64;63.28;98657.97;2082498;28;19971;-61
2024/01/02 00:20:08;;;;;;;;;;;;;;;18.65;63.20;98662.31;2083376;28;20402;-61
2024/01/02 00:21:08;;;;;;;;;;;;;;;18.66;63.03;98655.06;2083161;28;19936;-65
2024/01/02 00:22:10;;;;;;;;;;;;;;;18.63;63.30;98655.47;2082896;28;19935;-64
2024/01/02 00:23:11;;;;;;;;;;;;;;;18.64;62.95;98654.47;2077891;28;19937;-64
2024/01/02 00:24:12;;;;;;;;;;;;;;;18.63;63.13;98656.31;2081928;28;20015;-64
2024/01/02 00:25:14;;;;;;;;;;;;;;;18.63;62.83;98658.16;2080619;28;19952;-62
2024/01/02 00:26:16;;;;;;;;;;;;;;;18.64;63.04;98652.59;2083237;28;19956;-64
2024/01/02 00:27:17;;;;;;;;;;;;;;;18.65;63.13;98661.47;2082163;28;19925;-64
2024/01/02 00:28:19;;;;;;;;;;;;;;;18.64;63.11;98659.84;2082230;28;19969;-64
2024/01/02 00:29:19;;;;;;;;;;;;;;;18.64;63.18;98663.34;2082173;28;19929;-63
2024/01/02 00:30:21;;;;;;;;;;;;;;;18.64;62.94;98663.34;2082263;28;19932;-64
2024/01/02 00:31:21;;;;;;;;;;;;;;;18.65;63.10;98665.00;2079386;28;20400;-64
2024/01/02 00:32:23;;;;;;;;;;;;;;;18.64;63.06;98670.59;2083282;28;19960;-63
2024/01/02 00:33:24;;;;;;;;;;;;;;;18.64;63.36;98665.22;2081939;28;19929;-64
2024/01/02 00:34:25;;;;;;;;;;;;;;;18.65;63.26;98666.84;2082649;28;19968;-64
2024/01/02 00:35:26;;;;;;;;;;;;;;;18.64;63.37;98667.91;2082593;28;20094;-65
2024/01/02 00:36:27;;;;;;;;;;;;;;;18.63;63.06;98666.22;2077205;28;19933;-64
2024/01/02 00:37:28;;;;;;;;;;;;;;;18.62;63.04;98667.25;2084772;28;19936;-62
2024/01/02 00:38:30;;;;;;;;;;;;;;;18.63;63.41;98674.28;2074416;28;20015;-64
2024/01/02 00:39:30;;;;;;;;;;;;;;;18.62;63.16;98673.47;2080992;28;19929;-64
2024/01/02 00:40:33;;;;;;;;;;;;;;;18.63;63.24;98671.59;2082027;28;20367;-64
2024/01/02 00:41:34;;;;;;;;;;;;;;;18.63;63.35;98675.09;2081842;28;19925;-64
2024/01/02 00:42:35;;;;;;;;;;;;;;;18.63;63.25;98685.03;2079955;28;19963;-64
2024/01/02 00:43:36;;;;;;;;;;;;;;;18.64;63.17;98681.34;2078199;28;19925;-63
2024/01/02 00:44:38;;;;;;;;;;;;;;;18.63;63.23;98685.03;2076658;28;19968;-64
2024/01/02 00:45:38;;;;;;;;;;;;;;;18.61;63.14;98689.75;2079111;28;19933;-64
2024/01/02 00:46:39;;;;;;;;;;;;;;;18.60;63.52;98693.50;2079794;28;19932;-63
2024/01/02 00:47:40;;;;;;;;;;;;;;;18.60;63.51;98688.13;2078154;28;20579;-65
2024/01/02 00:48:41;;;;;;;;;;;;;;;18.59;63.40;98691.84;2079963;28;19929;-63
2024/01/02 00:49:42;;;;;;;;;;;;;;;18.58;63.40;98690.16;2081293;28;19980;-65
2024/01/02 00:50:43;;;;;;;;;;;;;;;18.58;63.24;98682.13;2078797;28;19944;-63
2024/01/02 00:51:45;;;;;;;;;;;;;;;18.59;63.35;98686.47;2077973;28;20019;-64
2024/01/02 00:52:45;;;;;;;;;;;;;;;18.59;63.37;98686.47;2080872;28;19925;-62
2024/01/02 00:53:46;;;;;;;;;;;;;;;18.60;63.03;98685.44;2078775;28;19931;-64
2024/01/02 00:54:49;;;;;;;;;;;;;;;18.61;63.19;98695.13;2082816;28;20015;-64
2024/01/02 00:55:51;;;;;;;;;;;;;;;18.58;62.96;98687.50;2079209;28;20416;-63
2024/01/02 00:56:53;;;;;;;;;;;;;;;18.61;63.09;98689.75;2082116;28;19960;-63
2024/01/02 00:57:53;;;;;;;;;;;;;;;18.58;62.94;98688.31;2082759;28;19929;-62
2024/01/02 00:58:55;;;;;;;;;;;;;;;18.57;63.12;98689.34;2079084;28;19969;-64
2024/01/02 00:59:57;;;;;;;;;;;;;;;18.56;63.09;98682.34;2079606;28;19940;-62
2024/01/02 01:00:59;;;;;;;;;;;;;;;18.56;63.51;98684.19;2079526;28;19935;-66
2024/01/02 01:01:59;;;;;;;;;;;;;;;18.56;63.26;98692.25;2079424;28;19935;-62
2024/01/02 01:03:01;;;;;;;;;;;;;;;18.54;63.38;98689.75;2083672;28;19964;-64
2024/01/02 01:04:02;;;;;;;;;;;;;;;18.56;63.32;98697.63;2080952;28;19929;-62
2024/01/02 01:05:04;;;;;;;;;;;;;;;18.53;63.29;98694.31;2083040;28;20019;-63
2024/01/02 01:06:05;;;;;;;;;;;;;;;18.53;63.17;98696.16;2076361;28;19933;-64
2024/01/02 01:07:06;;;;;;;;;;;;;;;18.54;63.25;98695.13;2084598;28;19964;-63
2024/01/02 01:08:07;;;;;;;;;;;;;;;18.54;63.12;98695.94;2080891;28;19944;-62
2024/01/02 01:09:08;;;;;;;;;;;;;;;18.53;63.30;98688.94;2079885;28;19944;-63
2024/01/02 01:10:10;;;;;;;;;;;;;;;18.53;63.13;98693.47;2083028;28;20383;-64
2024/01/02 01:11:12;;;;;;;;;;;;;;;18.52;63.01;98697.19;2084169;28;19929;-64
2024/01/02 01:12:14;;;;;;;;;;;;;;;18.52;63.09;98692.63;2082912;28;19960;-64
2024/01/02 01:13:15;;;;;;;;;;;;;;;18.52;63.49;98697.19;2080730;28;22332;-64
2024/01/02 01:14:16;;;;;;;;;;;;;;;18.51;63.21;98691.00;2078991;28;19967;-64
2024/01/02 01:15:17;;;;;;;;;;;;;;;18.50;63.28;98689.34;2080508;28;19929;-64
2024/01/02 01:16:17;;;;;;;;;;;;;;;18.49;63.17;98687.66;2080620;28;19972;-63
2024/01/02 01:17:19;;;;;;;;;;;;;;;18.48;63.39;98690.56;2081906;28;19939;-62
2024/01/02 01:18:20;;;;;;;;;;;;;;;18.49;63.36;98694.91;2081335;28;19944;-63
2024/01/02 01:19:20;;;;;;;;;;;;;;;18.48;63.37;98691.38;2084555;28;20012;-63
2024/01/02 01:20:22;;;;;;;;;;;;;;;18.47;63.58;98695.13;2083633;28;19955;-64
2024/01/02 01:21:22;;;;;;;;;;;;;;;18.48;63.16;98691.38;2080314;28;20073;-64
2024/01/02 01:22:23;;;;;;;;;;;;;;;18.48;63.21;98691.38;2082200;28;19995;-64
2024/01/02 01:23:25;;;;;;;;;;;;;;;18.46;63.44;98695.31;2079792;28;20387;-64
2024/01/02 01:24:25;;;;;;;;;;;;;;;18.46;63.20;98696.13;2080024;28;19940;-64
2024/01/02 01:25:27;;;;;;;;;;;;;;;18.43;63.18;98691.16;2080152;28;19929;-64
2024/01/02 01:26:29;;;;;;;;;;;;;;;18.42;63.13;98694.88;2080569;28;19932;-64
2024/01/02 01:27:30;;;;;;;;;;;;;;;18.42;63.50;98697.56;2081468;28;20351;-64
2024/01/02 01:28:31;;;;;;;;;;;;;;;18.43;63.41;98701.91;2077212;28;20312;-64
2024/01/02 01:29:32;;;;;;;;;;;;;;;18.41;63.26;98700.44;2080028;28;19976;-64
2024/01/02 01:30:33;;;;;;;;;;;;;;;18.41;63.21;98698.59;2081757;28;19929;-64
2024/01/02 01:31:34;;;;;;;;;;;;;;;18.41;63.35;98703.94;2082244;28;19943;-65
2024/01/02 01:32:36;;;;;;;;;;;;;;;18.41;63.42;98703.94;2083603;28;19975;-64
2024/01/02 01:33:36;;;;;;;;;;;;;;;18.41;63.29;98703.94;2080571;28;20019;-64
2024/01/02 01:34:38;;;;;;;;;;;;;;;18.38;63.22;98706.22;2083633;28;19925;-64
2024/01/02 01:35:38;;;;;;;;;;;;;;;18.38;63.46;98707.03;2084012;28;19929;-65
2024/01/02 01:36:40;;;;;;;;;;;;;;;18.37;63.48;98705.41;2082728;28;19975;-65
2024/01/02 01:37:41;;;;;;;;;;;;;;;18.37;63.34;98704.56;2081604;28;19936;-64
2024/01/02 01:38:42;;;;;;;;;;;;;;;18.37;63.17;98705.41;2079462;28;20015;-63
2024/01/02 01:39:43;;;;;;;;;;;;;;;18.37;63.43;98701.88;2079101;28;19929;-64
2024/01/02 01:40:44;;;;;;;;;;;;;;;18.36;63.43;98709.13;2081879;28;19952;-64
2024/01/02 01:41:46;;;;;;;;;;;;;;;18.36;63.21;98713.63;2082546;28;19928;-65
2024/01/02 01:42:47;;;;;;;;;;;;;;;18.38;63.35;98712.41;2078998;28;20028;-64
2024/01/02 01:43:49;;;;;;;;;;;;;;;18.38;62.97;98716.97;2081820;28;20864;-63
2024/01/02 01:44:49;;;;;;;;;;;;;;;18.33;63.29;98712.22;2081305;28;20470;-63
2024/01/02 01:45:51;;;;;;;;;;;;;;;18.35;63.15;98715.50;2082160;28;19960;-64
2024/01/02 01:46:51;;;;;;;;;;;;;;;18.33;63.62;98709.53;2078466;28;19966;-64
2024/01/02 01:47:52;;;;;;;;;;;;;;;18.32;63.36;98710.53;2078632;28;19929;-64
2024/01/02 01:48:54;;;;;;;;;;;;;;;18.30;63.42;98704.53;2082071;28;19925;-64
2024/01/02 01:49:54;;;;;;;;;;;;;;;18.30;63.46;98700.00;2082352;28;20406;-64
2024/01/02 01:50:56;;;;;;;;;;;;;;;18.29;63.28;98702.88;2079809;28;19967;-63
2024/01/02 01:51:58;;;;;;;;;;;;;;;18.27;63.55;98700.38;2082322;28;19925;-64
2024/01/02 01:53:01;;;;;;;;;;;;;;;18.28;63.33;98701.22;2079713;28;20304;-62
2024/01/02 01:54:03;;;;;;;;;;;;;;;18.26;63.61;98703.28;2079873;28;19936;-62
2024/01/02 01:55:05;;;;;;;;;;;;;;;18.25;63.36;98701.63;2081716;28;19925;-63
2024/01/02 01:56:07;;;;;;;;;;;;;;;18.26;63.50;98703.28;2081535;28;19954;-63
2024/01/02 01:57:10;;;;;;;;;;;;;;;18.25;63.45;98701.63;2083252;28;19936;-63
2024/01/02 01:58:12;;;;;;;;;;;;;;;18.22;63.34;98708.22;2079699;28;19929;-64
2024/01/02 01:59:14;;;;;;;;;;;;;;;18.22;63.58;98713.59;2079834;28;19928;-63
2024/01/02 02:00:15;;;;;;;;;;;;;;;18.21;63.68;98719.16;2079683;28;19937;-63
2024/01/02 02:01:16;;;;;;;;;;;;;;;18.20;63.61;98718.34;2080829;28;19960;-63
2024/01/02 02:02:18;;;;;;;;;;;;;;;18.20;63.70;98721.03;2077860;28;20387;-62
2024/01/02 02:03:19;;;;;;;;;;;;;;;18.23;63.39;98719.78;2080332;28;20269;-61
2024/01/02 02:04:20;;;;;;;;;;;;;;;18.24;63.20;98718.75;2079746;28;19982;-63
2024/01/02 02:05:24;;;;;;;;;;;;;;;18.23;63.24;98730.53;2080961;28;20520;-64
2024/01/02 02:06:25;;;;;;;;;;;;;;;18.23;63.55;98727.84;2076564;28;20426;-63
2024/01/02 02:07:27;;;;;;;;;;;;;;;18.21;63.51;98730.72;2078603;28;19929;-63
2024/01/02 02:08:29;;;;;;;;;;;;;;;18.22;63.27;98734.22;2080529;28;19932;-63
2024/01/02 02:09:30;;;;;;;;;;;;;;;18.20;63.46;98728.25;2082083;28;19955;-64
2024/01/02 02:10:30;;;;;;;;;;;;;;;18.20;63.24;98734.44;2079233;28;20040;-64
2024/01/02 02:11:32;;;;;;;;;;;;;;;18.19;63.21;98729.25;2076385;28;19933;-65
2024/01/02 02:12:34;;;;;;;;;;;;;;;18.15;63.56;98734.19;2078878;28;19925;-63
2024/01/02 02:13:36;;;;;;;;;;;;;;;18.16;63.51;98737.72;2076296;28;20541;-64
2024/01/02 02:14:37;;;;;;;;;;;;;;;18.17;63.57;98736.69;2076048;28;19936;-64
2024/01/02 02:15:41;;;;;;;;;;;;;;;18.17;63.36;98731.34;2078808;28;19980;-63
2024/01/02 02:16:42;;;;;;;;;;;;;;;18.14;63.62;98729.03;2080148;28;19932;-64
2024/01/02 02:17:44;;;;;;;;;;;;;;;18.11;63.37;98729.41;2088472;28;20825;-63
2024/01/02 02:18:45;;;;;;;;;;;;;;;18.09;63.73;98729.63;2089910;28;19935;-64
2024/01/02 02:19:46;;;;;;;;;;;;;;;18.07;63.68;98724.44;2089124;28;20039;-63
2024/01/02 02:20:47;;;;;;;;;;;;;;;18.09;63.36;98726.94;2089054;28;19932;-64
2024/01/02 02:21:49;;;;;;;;;;;;;;;18.09;63.39;98722.41;2086550;28;19932;-64
2024/01/02 02:22:51;;;;;;;;;;;;;;;18.11;63.30;98716.00;2088159;28;20304;-62
2024/01/02 02:23:53;;;;;;;;;;;;;;;18.08;63.58;98712.69;2090501;28;19928;-64
2024/01/02 02:24:54;;;;;;;;;;;;;;;18.11;63.21;98706.13;2090908;28;19931;-63
2024/01/02 02:25:54;;;;;;;;;;;;;;;18.12;63.23;98704.25;2089198;28;20379;-64
2024/01/02 02:26:57;;;;;;;;;;;;;;;18.14;63.41;98699.53;2088896;28;19975;-64
2024/01/02 02:27:58;;;;;;;;;;;;;;;18.16;63.41;98697.44;2088342;28;19928;-65
2024/01/02 02:29:02;;;;;;;;;;;;;;;18.21;63.04;98690.44;2088624;28;20232;-64
2024/01/02 02:30:03;;;;;;;;;;;;;;;18.23;63.14;98690.25;2088706;28;19925;-64
2024/01/02 02:31:04;;;;;;;;;;;;;;;18.27;63.08;98683.44;2089295;28;19925;-63
2024/01/02 02:32:06;;;;;;;;;;;;;;;18.28;63.06;98685.13;2089519;28;19935;-64
2024/01/02 02:33:07;;;;;;;;;;;;;;;18.29;62.86;98679.53;2087100;28;19925;-65
2024/01/02 02:34:08;;;;;;;;;;;;;;;18.33;62.93;98679.13;2089830;28;19925;-63
2024/01/02 02:35:09;;;;;;;;;;;;;;;18.34;62.99;98676.25;2089301;28;19956;-64
2024/01/02 02:36:10;;;;;;;;;;;;;;;18.37;62.81;98678.53;2088483;28;19936;-64
2024/01/02 02:37:11;;;;;;;;;;;;;;;18.39;62.98;98676.50;2086977;28;19929;-65
2024/01/02 02:38:14;;;;;;;;;;;;;;;18.42;62.56;98680.63;2089670;28;19933;-62
2024/01/02 02:39:15;;;;;;;;;;;;;;;18.43;62.82;98677.72;2089305;28;19936;-65
2024/01/02 02:40:16;;;;;;;;;;;;;;;18.44;62.77;98675.88;2089185;28;20007;-64
2024/01/02 02:41:17;;;;;;;;;;;;;;;18.46;62.92;98677.31;2087968;28;20579;-65
2024/01/02 02:42:18;;;;;;;;;;;;;;;18.48;62.63;98683.34;2086352;28;19976;-61
2024/01/02 02:43:19;;;;;;;;;;;;;;;18.50;62.59;98683.16;2087383;28;19925;-63
2024/01/02 02:44:20;;;;;;;;;;;;;;;18.51;62.59;98682.94;2087469;28;19929;-63
2024/01/02 02:45:22;;;;;;;;;;;;;;;18.53;62.63;98683.56;2087404;28;20011;-64
2024/01/02 02:46:22;;;;;;;;;;;;;;;18.52;62.52;98676.50;2088258;28;20319;-65
2024/01/02 02:47:23;;;;;;;;;;;;;;;18.54;62.65;98679.84;2090394;28;20003;-62
2024/01/02 02:48:25;;;;;;;;;;;;;;;18.56;62.70;98678.81;2090608;28;19967;-63
2024/01/02 02:49:25;;;;;;;;;;;;;;;18.55;62.78;98677.97;2088567;28;19925;-64
2024/01/02 02:50:27;;;;;;;;;;;;;;;18.57;62.79;98691.22;2087203;28;20166;-63
2024/01/02 02:51:27;;;;;;;;;;;;;;;18.58;62.85;98679.44;2087701;28;19925;-65
2024/01/02 02:52:29;;;;;;;;;;;;;;;18.57;62.66;98680.47;2088459;28;19994;-65
2024/01/02 02:53:31;;;;;;;;;;;;;;;18.57;62.67;98683.16;2089313;28;19935;-63
2024/01/02 02:54:32;;;;;;;;;;;;;;;18.59;62.50;98681.09;2083394;28;20426;-63
2024/01/02 02:55:33;;;;;;;;;;;;;;;18.58;62.65;98679.44;2084656;28;20039;-64
2024/01/02 02:56:34;;;;;;;;;;;;;;;18.60;62.56;98682.75;2088078;28;21391;-64
2024/01/02 02:57:35;;;;;;;;;;;;;;;18.60;62.79;98677.38;2088151;28;19967;-64
2024/01/02 02:58:36;;;;;;;;;;;;;;;18.60;62.60;98682.75;2081433;28;19939;-64
2024/01/02 02:59:38;;;;;;;;;;;;;;;18.63;62.48;98682.34;2086786;28;19975;-64
2024/01/02 03:00:38;;;;;;;;;;;;;;;18.61;62.66;98682.56;2088962;28;19928;-63
2024/01/02 03:01:41;;;;;;;;;;;;;;;18.63;62.58;98682.34;2088909;28;20116;-62
2024/01/02 03:02:41;;;;;;;;;;;;;;;18.63;62.55;98682.34;2086061;28;19981;-63
2024/01/02 03:03:43;;;;;;;;;;;;;;;18.63;62.54;98682.34;2086897;28;20411;-65
2024/01/02 03:04:44;;;;;;;;;;;;;;;18.64;62.52;98678.66;2085862;28;19925;-63
2024/01/02 03:05:45;;;;;;;;;;;;;;;18.65;62.51;98674.91;2087762;28;19996;-64
2024/01/02 03:06:46;;;;;;;;;;;;;;;18.64;62.62;98684.84;2087287;28;19932;-64
2024/01/02 03:07:47;;;;;;;;;;;;;;;18.64;62.63;98674.09;2085709;28;20407;-64
2024/01/02 03:08:49;;;;;;;;;;;;;;;18.66;62.79;98673.88;2087982;28;19925;-64
2024/01/02 03:09:51;;;;;;;;;;;;;;;18.65;62.67;98675.72;2088400;28;19928;-64
2024/01/02 03:10:56;;;;;;;;;;;;;;;18.65;62.78;98670.38;2088480;28;21615;-64
2024/01/02 03:11:57;;;;;;;;;;;;;;;18.64;62.85;98676.78;2091931;28;20364;-64
2024/01/02 03:12:58;;;;;;;;;;;;;;;18.64;62.76;98671.41;2090605;28;19936;-64
2024/01/02 03:13:59;;;;;;;;;;;;;;;18.64;62.62;98673.28;2088458;28;20078;-64
2024/01/02 03:15:00;;;;;;;;;;;;;;;18.65;62.57;98677.59;2090293;28;19928;-64
2024/01/02 03:16:01;;;;;;;;;;;;;;;18.66;62.74;98677.38;2089902;28;19936;-62
2024/01/02 03:17:02;;;;;;;;;;;;;;;18.67;62.56;98673.69;2085383;28;20388;-65
2024/01/02 03:18:03;;;;;;;;;;;;;;;18.68;62.93;98671.81;2087810;28;19939;-64
2024/01/02 03:19:05;;;;;;;;;;;;;;;18.69;62.54;98668.09;2086691;28;20656;-63
2024/01/02 03:20:06;;;;;;;;;;;;;;;18.69;62.42;98666.25;2087527;28;19928;-64
2024/01/02 03:21:09;;;;;;;;;;;;;;;18.71;62.75;98668.72;2087332;28;20034;-64
2024/01/02 03:22:09;;;;;;;;;;;;;;;18.69;62.43;98666.25;2086711;28;19924;-64
2024/01/02 03:23:11;;;;;;;;;;;;;;;18.69;62.63;98660.88;2085518;28;19975;-62
2024/01/02 03:24:13;;;;;;;;;;;;;;;18.68;62.71;98659.22;2088704;28;20293;-63
2024/01/02 03:25:15;;;;;;;;;;;;;;;18.70;62.64;98659.03;2087023;28;19939;-63
2024/01/02 03:26:15;;;;;;;;;;;;;;;18.71;62.67;98661.47;2090991;28;19936;-64
2024/01/02 03:27:16;;;;;;;;;;;;;;;18.71;62.85;98668.72;2086964;28;20027;-64
2024/01/02 03:28:17;;;;;;;;;;;;;;;18.72;62.66;98673.91;2090427;28;20012;-63
2024/01/02 03:29:18;;;;;;;;;;;;;;;18.70;62.48;98662.53;2087727;28;19939;-64
2024/01/02 03:30:20;;;;;;;;;;;;;;;18.70;62.60;98667.91;2087115;28;20474;-63
2024/01/02 03:31:20;;;;;;;;;;;;;;;18.69;62.64;98660.88;2087196;28;19940;-64
2024/01/02 03:32:22;;;;;;;;;;;;;;;18.69;62.62;98665.41;2090226;28;20007;-64
2024/01/02 03:33:23;;;;;;;;;;;;;;;18.69;62.81;98670.78;2089224;28;19978;-62
2024/01/02 03:34:24;;;;;;;;;;;;;;;18.71;62.55;98674.91;2086403;28;19931;-63
2024/01/02 03:35:25;;;;;;;;;;;;;;;18.71;62.62;98674.09;2089317;28;19940;-63
2024/01/02 03:36:26;;;;;;;;;;;;;;;18.73;62.77;98680.94;2089213;28;20529;-64
2024/01/02 03:37:28;;;;;;;;;;;;;;;18.72;62.71;98681.97;2090817;28;19925;-63
2024/01/02 03:38:28;;;;;;;;;;;;;;;18.73;62.46;98690.84;2090597;28;19924;-64
2024/01/02 03:39:31;;;;;;;;;;;;;;;18.74;62.78;98687.16;2089660;28;20422;-63
2024/01/02 03:40:32;;;;;;;;;;;;;;;18.75;62.59;98686.13;2088546;28;19928;-64
2024/01/02 03:41:33;;;;;;;;;;;;;;;18.73;62.79;98686.31;2090047;28;19982;-64
2024/01/02 03:42:34;;;;;;;;;;;;;;;18.76;62.65;98687.78;2087152;28;20013;-62
2024/01/02 03:43:36;;;;;;;;;;;;;;;18.72;62.62;98683.81;2085992;28;19971;-63
2024/01/02 03:44:36;;;;;;;;;;;;;;;18.73;62.86;98685.47;2087770;28;19939;-64
2024/01/02 03:45:38;;;;;;;;;;;;;;;18.74;62.60;98685.28;2088345;28;20454;-63
2024/01/02 03:46:38;;;;;;;;;;;;;;;18.73;62.43;98683.63;2089231;28;19947;-64
2024/01/02 03:47:40;;;;;;;;;;;;;;;18.75;62.90;98680.78;2087571;28;19967;-62
2024/01/02 03:48:41;;;;;;;;;;;;;;;18.74;62.56;98684.47;2084760;28;20396;-64
2024/01/02 03:49:42;;;;;;;;;;;;;;;18.74;62.57;98677.22;2088896;28;19960;-64
2024/01/02 03:50:43;;;;;;;;;;;;;;;18.77;62.79;98684.06;2088661;28;19978;-63
2024/01/02 03:51:45;;;;;;;;;;;;;;;18.73;62.77;98675.56;2090521;28;20418;-64
2024/01/02 03:52:45;;;;;;;;;;;;;;;18.75;62.77;98681.59;2086239;28;19939;-62
2024/01/02 03:53:47;;;;;;;;;;;;;;;18.75;62.58;98670.03;2088482;28;19968;-62
2024/01/02 03:54:49;;;;;;;;;;;;;;;18.77;62.62;98677.84;2089906;28;19931;-63
2024/01/02 03:55:50;;;;;;;;;;;;;;;18.77;62.81;98667.94;2089429;28;19935;-61
2024/01/02 03:56:51;;;;;;;;;;;;;;;18.77;62.70;98681.38;2089424;28;20418;-63
2024/01/02 03:57:52;;;;;;;;;;;;;;;18.77;62.60;98678.69;2088060;28;20011;-62
2024/01/02 03:58:53;;;;;;;;;;;;;;;18.74;62.77;98679.09;2087532;28;19943;-63
2024/01/02 03:59:54;;;;;;;;;;;;;;;18.73;62.90;98683.63;2087841;28;20040;-64
2024/01/02 04:00:55;;;;;;;;;;;;;;;18.73;62.74;98682.78;2088470;28;19929;-64
2024/01/02 04:01:57;;;;;;;;;;;;;;;18.73;62.46;98672.88;2091141;28;21618;-62
2024/01/02 04:02:57;;;;;;;;;;;;;;;18.73;62.73;98680.94;2090528;28;19933;-64
2024/01/02 04:03:59;;;;;;;;;;;;;;;18.74;62.70;98676.41;2089866;28;20132;-63
2024/01/02 04:04:59;;;;;;;;;;;;;;;18.71;62.85;98674.91;2081724;28;19926;-64
2024/01/02 04:06:01;;;;;;;;;;;;;;;18.72;62.85;98681.13;2080033;28;20012;-64
2024/01/02 04:07:02;;;;;;;;;;;;;;;18.73;62.79;98678.25;2080864;28;20434;-63
2024/01/02 04:08:04;;;;;;;;;;;;;;;18.72;62.83;98679.28;2082702;28;19940;-63
2024/01/02 04:09:04;;;;;;;;;;;;;;;18.72;62.77;98675.75;2072290;28;19929;-64
2024/01/02 04:10:08;;;;;;;;;;;;;;;18.70;62.81;98678.66;2080554;28;19973;-63
2024/01/02 04:11:08;;;;;;;;;;;;;;;18.71;62.76;98674.91;2080399;28;20307;-64
2024/01/02 04:12:10;;;;;;;;;;;;;;;18.72;62.84;98683.81;2078123;28;19968;-64
2024/01/02 04:13:11;;;;;;;;;;;;;;;18.71;62.65;98682.16;2079715;28;19925;-64
2024/01/02 04:14:12;;;;;;;;;;;;;;;18.70;62.68;98691.25;2080612;28;19968;-63
2024/01/02 04:15:13;;;;;;;;;;;;;;;18.71;62.67;98687.53;2079334;28;19965;-63
2024/01/02 04:16:15;;;;;;;;;;;;;;;18.68;62.68;98680.69;2080946;28;20312;-64
2024/01/02 04:17:15;;;;;;;;;;;;;;;18.68;62.84;98680.69;2084916;28;19933;-64
2024/01/02 04:18:17;;;;;;;;;;;;;;;18.68;62.67;98678.00;2079217;28;20454;-64
2024/01/02 04:19:17;;;;;;;;;;;;;;;18.68;62.55;98678.00;2082466;28;19955;-64
2024/01/02 04:20:19;;;;;;;;;;;;;;;18.69;63.01;98676.16;2083544;28;19960;-64
2024/01/02 04:21:20;;;;;;;;;;;;;;;18.67;62.60;98671.00;2081677;28;19929;-64
2024/01/02 04:22:21;;;;;;;;;;;;;;;18.67;62.74;98676.38;2080408;28;19967;-64
2024/01/02 04:23:22;;;;;;;;;;;;;;;18.66;62.65;98671.19;2077417;28;19935;-64
2024/01/02 04:24:25;;;;;;;;;;;;;;;18.66;62.88;98681.94;2080587;28;20016;-62
2024/01/02 04:25:27;;;;;;;;;;;;;;;18.65;62.78;98680.28;2085135;28;19943;-64
2024/01/02 04:26:29;;;;;;;;;;;;;;;18.64;62.85;98687.53;2084607;28;20020;-62
2024/01/02 04:27:30;;;;;;;;;;;;;;;18.64;63.00;98679.47;2081199;28;19933;-64
2024/01/02 04:28:31;;;;;;;;;;;;;;;18.63;62.72;98685.84;2085009;28;19967;-64
2024/01/02 04:29:32;;;;;;;;;;;;;;;18.61;62.73;98673.66;2082032;28;19929;-63
2024/01/02 04:30:34;;;;;;;;;;;;;;;18.61;62.78;98671.81;2078915;28;19956;-64
2024/01/02 04:31:35;;;;;;;;;;;;;;;18.62;62.75;98683.38;2079637;28;19929;-65
2024/01/02 04:32:35;;;;;;;;;;;;;;;18.63;62.87;98682.34;2081796;28;19968;-65
2024/01/02 04:33:37;;;;;;;;;;;;;;;18.63;62.83;98682.34;2082160;28;20434;-63
2024/01/02 04:34:37;;;;;;;;;;;;;;;18.62;62.77;98688.75;2078328;28;20301;-64
2024/01/02 04:35:39;;;;;;;;;;;;;;;18.65;62.63;98683.78;2080035;28;20021;-64
2024/01/02 04:36:41;;;;;;;;;;;;;;;18.66;62.70;98681.94;2080966;28;20277;-62
2024/01/02 04:37:42;;;;;;;;;;;;;;;18.63;62.55;98677.78;2080986;28;19929;-64
2024/01/02 04:38:44;;;;;;;;;;;;;;;18.64;62.86;98679.47;2076795;28;19936;-63
2024/01/02 04:39:44;;;;;;;;;;;;;;;18.65;62.80;98680.28;2078564;28;19929;-64
2024/01/02 04:40:47;;;;;;;;;;;;;;;18.66;62.49;98682.75;2079652;28;20535;-64
2024/01/02 04:41:48;;;;;;;;;;;;;;;18.67;62.49;98684.44;2079660;28;19936;-64
2024/01/02 04:42:49;;;;;;;;;;;;;;;18.67;62.62;98688.97;2078982;28;19964;-63
2024/01/02 04:43:50;;;;;;;;;;;;;;;18.68;62.64;98693.31;2082275;28;19932;-63
2024/01/02 04:44:52;;;;;;;;;;;;;;;18.69;62.39;98697.66;2079888;28;19952;-64
2024/01/02 04:45:52;;;;;;;;;;;;;;;18.69;62.43;98697.66;2080590;28;20019;-64
2024/01/02 04:46:54;;;;;;;;;;;;;;;18.69;62.46;98694.97;2081268;28;20371;-63
2024/01/02 04:47:55;;;;;;;;;;;;;;;18.68;62.54;98694.13;2080308;28;19924;-62
2024/01/02 04:48:56;;;;;;;;;;;;;;;18.68;62.56;98696.00;2077330;28;20047;-64
2024/01/02 04:49:57;;;;;;;;;;;;;;;18.67;62.58;98700.56;2083577;28;19933;-63
2024/01/02 04:50:58;;;;;;;;;;;;;;;18.68;62.69;98701.38;2080303;28;19971;-65
2024/01/02 04:51:59;;;;;;;;;;;;;;;18.67;62.48;98702.41;2082283;28;19936;-63
2024/01/02 04:53:01;;;;;;;;;;;;;;;18.68;62.76;98701.38;2083546;28;19971;-64
2024/01/02 04:54:01;;;;;;;;;;;;;;;18.68;62.48;98698.69;2080440;28;20568;-64
2024/01/02 04:55:02;;;;;;;;;;;;;;;18.69;62.47;98703.88;2079689;28;19932;-64
2024/01/02 04:56:05;;;;;;;;;;;;;;;18.69;62.64;98709.25;2081871;28;20071;-63
2024/01/02 04:57:06;;;;;;;;;;;;;;;18.68;62.55;98704.88;2080538;28;19925;-64
2024/01/02 04:58:08;;;;;;;;;;;;;;;18.68;62.64;98712.13;2081162;28;19964;-63
2024/01/02 04:59:09;;;;;;;;;;;;;;;18.68;62.68;98709.44;2078688;28;20039;-63
2024/01/02 05:00:10;;;;;;;;;;;;;;;18.68;62.54;98712.13;2081749;28;19932;-65
2024/01/02 05:01:11;;;;;;;;;;;;;;;18.69;62.58;98713.75;2079285;28;20523;-64
2024/01/02 05:02:12;;;;;;;;;;;;;;;18.68;62.74;98712.13;2081559;28;19933;-64
2024/01/02 05:03:14;;;;;;;;;;;;;;;18.67;62.76;98711.28;2082896;28;19929;-63
2024/01/02 05:04:15;;;;;;;;;;;;;;;18.66;62.54;98695.38;2082619;28;19936;-63
2024/01/02 05:05:16;;;;;;;;;;;;;;;18.65;62.50;98704.47;2080457;28;19964;-64
2024/01/02 05:06:17;;;;;;;;;;;;;;;18.66;62.68;98700.75;2081916;28;19939;-63
2024/01/02 05:07:19;;;;;;;;;;;;;;;18.64;62.75;98706.34;2083487;28;19933;-64
2024/01/02 05:08:20;;;;;;;;;;;;;;;18.64;62.46;98703.66;2080375;28;19940;-62
2024/01/02 05:09:21;;;;;;;;;;;;;;;18.65;62.92;98702.59;2078948;28;20043;-64
2024/01/02 05:10:22;;;;;;;;;;;;;;;18.66;62.61;98708.81;2083925;28;19932;-64
2024/01/02 05:11:25;;;;;;;;;;;;;;;18.66;62.66;98711.47;2081075;28;20628;-64
2024/01/02 05:12:25;;;;;;;;;;;;;;;18.65;62.71;98713.34;2081556;28;19940;-64
2024/01/02 05:13:27;;;;;;;;;;;;;;;18.63;62.43;98715.41;2083473;28;19929;-64
2024/01/02 05:14:28;;;;;;;;;;;;;;;18.64;62.72;98716.25;2083170;28;20430;-64
2024/01/02 05:15:28;;;;;;;;;;;;;;;18.63;62.77;98714.56;2081964;28;19937;-64
2024/01/02 05:16:30;;;;;;;;;;;;;;;18.61;62.63;98708.56;2080913;28;19950;-64
2024/01/02 05:17:30;;;;;;;;;;;;;;;18.62;62.60;98713.75;2079039;28;20398;-64
2024/01/02 05:18:32;;;;;;;;;;;;;;;18.62;62.55;98724.50;2083274;28;19960;-64
2024/01/02 05:19:33;;;;;;;;;;;;;;;18.62;62.50;98719.13;2083725;28;20429;-64